Time;durP1;ratioP1;P1;durP2;ratioP2;P2;SDS_P1;SDS_P2;PMS_P1;PMS_P2;Temp;Humidity;BMP_temperature;BMP_pressure;BME280_temperature;BME280_humidity;BME280_pressure;Samples;Min_cycle;Max_cycle;Signal;HPM_P1;HPM_P2
2022/05/02 00:00:17;;;;;;;;;3.00;3.00;;;;;18.41;46.11;102245.25;5090975;28;8808;-69
2022/05/02 00:02:43;;;;;;;;;4.00;4.00;;;;;18.40;46.30;102240.81;5109573;28;8766;-70
2022/05/02 00:05:09;;;;;;;;;3.25;2.00;;;;;18.42;46.39;102244.34;5112115;28;9626;-70
2022/05/02 00:07:34;;;;;;;;;3.00;3.00;;;;;18.40;46.37;102240.81;5111255;28;8796;-70
2022/05/02 00:10:00;;;;;;;;;3.00;3.00;;;;;18.39;46.04;102239.91;5111847;28;9604;-70
2022/05/02 00:12:25;;;;;;;;;5.25;3.75;;;;;18.40;46.18;102246.09;5112212;28;8846;-70
2022/05/02 00:14:51;;;;;;;;;4.00;3.00;;;;;18.39;46.31;102246.97;5090934;28;8795;-69
2022/05/02 00:17:17;;;;;;;;;2.50;2.50;;;;;18.38;46.21;102245.19;5091223;28;8790;-69
2022/05/02 00:19:42;;;;;;;;;4.25;4.25;;;;;18.37;46.16;102241.66;5090371;28;8853;-69
2022/05/02 00:22:08;;;;;;;;;2.00;2.00;;;;;18.37;46.20;102243.44;5091153;28;8775;-69
2022/05/02 00:24:33;;;;;;;;;2.50;2.50;;;;;18.37;46.37;102235.50;5091078;28;8890;-69
2022/05/02 00:26:58;;;;;;;;;4.00;3.00;;;;;18.37;46.29;102239.00;5090516;28;8771;-69
2022/05/02 00:29:24;;;;;;;;;3.50;3.00;;;;;18.37;46.20;102232.84;5091304;28;8796;-69
2022/05/02 00:31:49;;;;;;;;;4.00;3.00;;;;;18.36;46.47;102234.59;5091111;28;8865;-70
2022/05/02 00:34:15;;;;;;;;;2.00;2.00;;;;;18.35;45.99;102230.19;5090322;28;8878;-69
2022/05/02 00:36:40;;;;;;;;;4.75;3.75;;;;;18.35;46.52;102235.47;5091071;28;8783;-71
2022/05/02 00:39:06;;;;;;;;;2.50;2.50;;;;;18.35;46.42;102235.47;5090811;28;9574;-70
2022/05/02 00:41:31;;;;;;;;;1.00;1.00;;;;;18.34;46.40;102224.00;5090496;28;8790;-69
2022/05/02 00:43:57;;;;;;;;;2.25;2.00;;;;;18.33;46.28;102222.22;5090808;28;8760;-71
2022/05/02 00:46:23;;;;;;;;;1.00;1.00;;;;;18.33;46.41;102224.84;5090901;28;8763;-70
2022/05/02 00:48:49;;;;;;;;;3.00;3.00;;;;;18.32;46.37;102220.47;5089817;28;8876;-70
2022/05/02 00:51:16;;;;;;;;;3.00;3.00;;;;;18.32;46.21;102219.56;5090745;28;9616;-69
2022/05/02 00:53:43;;;;;;;;;3.25;3.25;;;;;18.33;46.14;102224.00;5090669;28;8764;-69
2022/05/02 00:56:09;;;;;;;;;3.00;3.00;;;;;18.32;46.37;102225.75;5090088;28;9749;-70
2022/05/02 00:58:35;;;;;;;;;2.50;2.50;;;;;18.33;46.25;102218.72;5090570;28;9912;-69
2022/05/02 01:01:02;;;;;;;;;2.50;2.50;;;;;18.30;46.38;102216.00;5093929;28;8869;-70
2022/05/02 01:03:27;;;;;;;;;3.50;3.00;;;;;18.31;46.45;102215.13;5110146;28;9631;-70
2022/05/02 01:08:37;;;;;;;;;3.75;3.75;;;;;18.31;46.58;102221.31;5110555;28;8754;-70
2022/05/02 01:11:03;;;;;;;;;2.75;2.75;;;;;18.30;46.32;102211.59;5110157;28;9701;-70
2022/05/02 01:13:36;;;;;;;;;1.75;1.75;;;;;18.28;46.12;102213.34;5102731;28;8873;-70
2022/05/02 01:16:23;;;;;;;;;2.00;2.00;;;;;18.28;46.49;102213.34;5089631;28;9462;-70
2022/05/02 01:18:56;;;;;;;;;2.75;2.75;;;;;18.28;46.45;102210.72;5089897;28;9605;-70
2022/05/02 01:21:23;;;;;;;;;3.00;2.50;;;;;18.28;46.31;102212.47;5090576;28;9648;-70
2022/05/02 01:23:52;;;;;;;;;3.00;3.00;;;;;18.27;46.49;102214.22;5089626;28;9566;-70
2022/05/02 01:26:17;;;;;;;;;4.00;3.00;;;;;18.28;46.50;102209.81;5090431;28;9525;-70
2022/05/02 01:28:51;;;;;;;;;3.25;2.25;;;;;18.29;46.47;102212.50;5090477;28;9845;-70
2022/05/02 01:31:18;;;;;;;;;1.75;1.75;;;;;18.28;46.67;102217.75;5089455;28;8799;-70
2022/05/02 01:33:44;;;;;;;;;2.75;2.00;;;;;18.26;46.74;102209.78;5089875;28;9543;-70
2022/05/02 01:36:10;;;;;;;;;2.00;2.00;;;;;18.25;46.32;102207.16;5090222;28;9529;-70
2022/05/02 01:38:36;;;;;;;;;1.50;1.50;;;;;18.25;46.37;102204.50;5089691;28;8774;-70
2022/05/02 01:41:03;;;;;;;;;2.00;2.00;;;;;18.24;46.53;102206.25;5089756;28;8799;-70
2022/05/02 01:43:29;;;;;;;;;1.75;1.75;;;;;18.23;46.55;102196.53;5090243;28;9608;-70
2022/05/02 01:45:54;;;;;;;;;2.25;2.00;;;;;18.22;46.48;102194.75;5089194;28;10223;-70
2022/05/02 01:48:20;;;;;;;;;2.50;2.25;;;;;18.23;46.56;102200.94;5090124;28;8831;-71
2022/05/02 01:50:48;;;;;;;;;2.00;2.00;;;;;18.22;46.45;102200.03;5089954;28;8930;-69
2022/05/02 01:53:13;;;;;;;;;1.25;1.25;;;;;18.22;46.56;102191.25;5089392;28;8945;-70
2022/05/02 01:55:40;;;;;;;;;2.75;2.75;;;;;18.24;46.37;102197.44;5089851;28;10188;-70
2022/05/02 01:58:08;;;;;;;;;1.75;1.75;;;;;18.25;46.36;102202.75;5089298;28;8791;-70
2022/05/02 02:00:33;;;;;;;;;2.00;2.00;;;;;18.22;46.33;102188.63;5089688;28;9506;-70
2022/05/02 02:02:58;;;;;;;;;2.00;2.00;;;;;18.22;46.38;102191.25;5109489;28;9738;-70
2022/05/02 02:08:08;;;;;;;;;2.00;2.00;;;;;18.21;46.72;102182.44;5109844;28;9501;-70
2022/05/02 02:10:33;;;;;;;;;1.25;1.25;;;;;18.21;46.62;102185.09;5110475;28;9467;-71
2022/05/02 02:12:58;;;;;;;;;3.25;3.25;;;;;18.20;46.62;102183.28;5104844;28;8910;-69
2022/05/02 02:15:24;;;;;;;;;1.00;1.00;;;;;18.22;46.83;102180.69;5089820;28;8890;-70
2022/05/02 02:17:49;;;;;;;;;2.75;2.75;;;;;18.19;46.63;102184.16;5089564;28;8872;-71
2022/05/02 02:20:15;;;;;;;;;2.00;2.00;;;;;18.19;46.58;102186.81;5089880;28;8853;-70
2022/05/02 02:22:40;;;;;;;;;2.50;2.25;;;;;18.21;46.90;102181.53;5093646;28;8759;-70
2022/05/02 02:25:06;;;;;;;;;3.25;3.00;;;;;18.18;46.53;102179.72;5093616;28;8810;-70
2022/05/02 02:27:32;;;;;;;;;1.75;1.75;;;;;18.18;46.73;102185.03;5092906;28;8784;-70
2022/05/02 02:29:58;;;;;;;;;1.00;1.00;;;;;18.19;46.84;102185.91;5093301;28;8812;-70
2022/05/02 02:32:24;;;;;;;;;4.00;3.00;;;;;18.19;46.58;102185.91;5093558;28;11436;-70
2022/05/02 02:34:49;;;;;;;;;4.00;3.00;;;;;18.16;46.50;102184.13;5092341;28;9490;-70
2022/05/02 02:37:18;;;;;;;;;2.75;2.75;;;;;18.18;46.72;102185.03;5093586;28;8894;-70
2022/05/02 02:39:43;;;;;;;;;2.00;2.00;;;;;18.17;46.56;102183.28;5093227;28;8791;-70
2022/05/02 02:42:09;;;;;;;;;1.67;1.67;;;;;18.17;46.51;102185.91;5092559;28;9470;-68
2022/05/02 02:44:35;;;;;;;;;1.00;1.00;;;;;18.17;46.59;102187.66;5093691;28;8792;-70
2022/05/02 02:47:00;;;;;;;;;3.00;1.00;;;;;18.15;46.41;102182.34;5093019;28;8818;-70
2022/05/02 02:49:26;;;;;;;;;1.00;1.00;;;;;18.15;46.63;102178.81;5092745;28;8791;-70
2022/05/02 02:51:51;;;;;;;;;1.75;1.75;;;;;18.15;46.71;102177.06;5092805;28;8776;-70
2022/05/02 02:54:17;;;;;;;;;2.00;2.00;;;;;18.14;46.43;102172.66;5092458;28;8842;-70
2022/05/02 02:56:42;;;;;;;;;1.50;1.00;;;;;18.14;46.54;102172.66;5093043;28;9514;-70
2022/05/02 02:59:07;;;;;;;;;2.00;2.00;;;;;18.14;46.50;102171.78;5093014;28;8819;-69
2022/05/02 03:01:33;;;;;;;;;1.75;1.00;;;;;18.13;46.90;102170.00;5100434;28;8821;-70
2022/05/02 03:03:58;;;;;;;;;1.00;1.00;;;;;18.14;46.65;102169.13;5113104;28;8802;-70
2022/05/02 03:06:24;;;;;;;;;2.00;2.00;;;;;18.14;46.34;102166.47;5113236;28;8943;-70
2022/05/02 03:08:50;;;;;;;;;2.00;2.00;;;;;18.14;46.58;102170.03;5112250;28;8793;-70
2022/05/02 03:11:16;;;;;;;;;1.50;1.50;;;;;18.11;46.93;102161.16;5113429;28;8765;-70
2022/05/02 03:13:41;;;;;;;;;2.50;2.50;;;;;18.14;46.69;102169.13;5103226;28;8798;-70
2022/05/02 03:16:06;;;;;;;;;2.50;2.25;;;;;18.12;46.71;102166.47;5092163;28;8787;-70
2022/05/02 03:18:34;;;;;;;;;2.00;2.00;;;;;18.09;46.81;102161.13;5092517;28;8779;-69
2022/05/02 03:20:59;;;;;;;;;1.50;1.50;;;;;18.10;46.57;102162.91;5092539;28;8820;-69
2022/05/02 03:23:24;;;;;;;;;1.00;1.00;;;;;18.12;46.55;102158.53;5091921;28;9464;-68
2022/05/02 03:25:49;;;;;;;;;2.00;2.00;;;;;18.09;46.52;102158.50;5092464;28;8849;-70
2022/05/02 03:28:15;;;;;;;;;2.00;0.25;;;;;18.11;46.99;102162.03;5092863;28;8826;-70
2022/05/02 03:30:41;;;;;;;;;1.50;1.50;;;;;18.09;46.50;102160.25;5092432;28;8772;-70
2022/05/02 03:33:06;;;;;;;;;1.50;1.00;;;;;18.10;46.45;102159.38;5092775;28;9484;-70
2022/05/02 03:35:32;;;;;;;;;2.00;2.00;;;;;18.08;46.51;102153.19;5092818;28;11393;-70
2022/05/02 03:38:00;;;;;;;;;3.00;2.00;;;;;18.08;46.70;102158.47;5091960;28;8792;-70
2022/05/02 03:40:25;;;;;;;;;1.50;1.50;;;;;18.10;46.70;102154.09;5092244;28;8989;-71
2022/05/02 03:42:51;;;;;;;;;1.00;1.00;;;;;18.07;46.74;102154.94;5092450;28;9541;-71
2022/05/02 03:45:16;;;;;;;;;2.00;2.00;;;;;18.07;46.83;102148.78;5091812;28;8838;-69
2022/05/02 03:47:41;;;;;;;;;1.75;1.75;;;;;18.06;46.46;102150.53;5092451;28;9531;-70
2022/05/02 03:50:07;;;;;;;;;3.00;2.00;;;;;18.06;46.72;102153.19;5091983;28;8776;-70
2022/05/02 03:52:32;;;;;;;;;1.75;1.75;;;;;18.05;46.67;102153.16;5091797;28;8771;-69
2022/05/02 03:54:57;;;;;;;;;2.00;1.00;;;;;18.06;46.58;102152.28;5091915;28;8882;-69
2022/05/02 03:57:23;;;;;;;;;2.00;2.00;;;;;18.06;46.66;102154.94;5092170;28;8794;-70
2022/05/02 03:59:48;;;;;;;;;2.00;2.00;;;;;18.06;46.95;102160.22;5091021;28;8791;-69
2022/05/02 04:02:14;;;;;;;;;1.50;1.50;;;;;18.07;46.82;102156.72;5105937;28;9548;-70
2022/05/02 04:04:39;;;;;;;;;0.25;0.25;;;;;18.05;46.73;102159.31;5111208;28;8765;-71
2022/05/02 04:07:05;;;;;;;;;3.00;3.00;;;;;18.03;46.53;102163.72;5112047;28;9453;-70
2022/05/02 04:09:30;;;;;;;;;2.00;1.00;;;;;18.02;46.61;102161.94;5111982;28;8784;-70
2022/05/02 04:11:56;;;;;;;;;2.00;2.00;;;;;18.03;46.78;102161.06;5111343;28;8773;-70
2022/05/02 04:14:22;;;;;;;;;1.75;1.75;;;;;18.02;46.68;102159.28;5096431;28;8776;-70
2022/05/02 04:16:49;;;;;;;;;1.50;1.00;;;;;18.02;46.58;102167.22;5091730;28;9555;-70
2022/05/02 04:19:15;;;;;;;;;2.00;2.00;;;;;18.01;46.64;102162.81;5090703;28;8930;-69
2022/05/02 04:21:41;;;;;;;;;0.75;0.75;;;;;18.03;46.53;102170.75;5091447;28;9519;-70
2022/05/02 04:24:06;;;;;;;;;2.00;2.00;;;;;18.00;46.48;102171.59;5091289;28;9451;-70
2022/05/02 04:26:32;;;;;;;;;1.25;1.25;;;;;18.00;46.45;102171.59;5091106;28;8842;-69
2022/05/02 04:28:57;;;;;;;;;2.00;2.00;;;;;17.99;46.60;102167.19;5091323;28;8800;-69
2022/05/02 04:31:22;;;;;;;;;3.00;2.00;;;;;18.02;46.57;102171.63;5091697;28;8827;-70
2022/05/02 04:33:47;;;;;;;;;2.00;2.00;;;;;18.00;46.50;102166.31;5090615;28;8788;-70
2022/05/02 04:36:13;;;;;;;;;1.00;1.00;;;;;17.99;46.58;102169.84;5091394;28;8779;-70
2022/05/02 04:38:38;;;;;;;;;3.00;3.00;;;;;18.00;46.71;102173.34;5091628;28;9503;-70
2022/05/02 04:41:03;;;;;;;;;1.50;1.50;;;;;18.00;46.66;102174.22;5090491;28;8807;-68
2022/05/02 04:43:29;;;;;;;;;1.75;1.75;;;;;17.99;46.83;102177.75;5090858;28;8880;-69
2022/05/02 04:45:54;;;;;;;;;3.25;2.00;;;;;17.99;46.64;102174.22;5091250;28;8774;-69
2022/05/02 04:48:19;;;;;;;;;1.00;1.00;;;;;17.98;46.62;102173.34;5090662;28;8857;-69
2022/05/02 04:50:45;;;;;;;;;1.00;1.00;;;;;17.98;46.88;102172.44;5090839;28;8784;-69
2022/05/02 04:53:10;;;;;;;;;1.00;1.00;;;;;17.99;46.84;102169.84;5090981;28;8812;-70
2022/05/02 04:55:35;;;;;;;;;1.75;1.75;;;;;17.99;46.66;102168.94;5090344;28;8791;-69
2022/05/02 04:58:01;;;;;;;;;2.00;2.00;;;;;17.99;47.00;102169.84;5090611;28;8796;-69
2022/05/02 05:00:26;;;;;;;;;1.00;1.00;;;;;17.97;46.39;102166.28;5090939;28;8843;-69
2022/05/02 05:02:51;;;;;;;;;1.00;1.00;;;;;17.97;46.54;102171.56;5109071;28;9523;-69
2022/05/02 05:05:17;;;;;;;;;2.00;2.00;;;;;17.95;46.72;102173.31;5111399;28;8801;-69
2022/05/02 05:07:43;;;;;;;;;3.00;2.00;;;;;17.94;46.70;102168.88;5111192;28;8758;-69
2022/05/02 05:10:09;;;;;;;;;1.00;1.00;;;;;17.99;47.64;102179.50;5110807;28;9572;-70
2022/05/02 05:12:53;;;;;;;;;3.00;2.25;;;;;18.09;49.95;102174.34;5110382;28;8812;-70
2022/05/02 05:18:41;;;;;;;;;3.00;2.00;;;;;18.38;51.85;102179.97;5090096;28;9510;-68
2022/05/02 05:21:24;;;;;;;;;3.00;3.00;;;;;18.51;52.43;102163.41;5089998;28;10176;-69
2022/05/02 05:24:09;;;;;;;;;4.50;3.25;;;;;18.62;55.10;102168.78;5089135;28;9560;-69
2022/05/02 05:27:02;;;;;;;;;1.75;1.75;;;;;18.72;56.42;102179.47;5090323;28;10230;-69
2022/05/02 05:29:40;;;;;;;;;3.00;1.50;;;;;18.68;58.81;102171.50;5089331;28;9494;-69
2022/05/02 05:32:28;;;;;;;;;5.50;3.50;;;;;18.57;59.05;102167.84;5090100;28;9471;-70
2022/05/02 05:35:04;;;;;;;;;3.00;2.00;;;;;18.54;59.83;102175.75;5090038;28;9566;-70
2022/05/02 05:38:00;;;;;;;;;3.75;3.75;;;;;18.48;59.53;102173.94;5089689;28;9460;-69
2022/05/02 05:40:39;;;;;;;;;2.00;2.00;;;;;18.47;60.51;102173.91;5089874;28;9514;-69
2022/05/02 05:43:27;;;;;;;;;4.00;3.00;;;;;18.45;60.01;102181.81;5089274;28;10214;-68
2022/05/02 05:46:16;;;;;;;;;5.00;3.00;;;;;18.44;59.11;102176.50;5089872;28;10206;-69
2022/05/02 05:49:18;;;;;;;;;3.00;3.00;;;;;18.44;59.81;102184.44;5090078;28;9528;-69
2022/05/02 05:51:54;;;;;;;;;2.00;2.00;;;;;18.42;59.17;102181.78;5088793;28;9322;-69
2022/05/02 05:54:31;;;;;;;;;3.00;3.00;;;;;18.43;58.96;102180.91;5090096;28;9461;-69
2022/05/02 05:57:41;;;;;;;;;5.00;4.00;;;;;18.41;58.75;102180.00;5089526;28;9783;-69
2022/05/02 06:00:12;;;;;;;;;3.25;3.00;;;;;18.39;58.65;102179.09;5078773;28;9665;-68
2022/05/02 06:03:06;;;;;;;;;6.33;3.67;;;;;18.41;58.50;102184.41;5107186;28;9354;-69
2022/05/02 06:05:43;;;;;;;;;2.00;2.00;;;;;18.40;58.21;102187.94;5109402;28;9394;-69
2022/05/02 06:08:29;;;;;;;;;4.50;2.75;;;;;18.39;58.34;102184.38;5110159;28;9455;-69
2022/05/02 06:10:58;;;;;;;;;3.00;3.00;;;;;18.38;57.73;102185.25;5109601;28;9711;-70
2022/05/02 06:13:30;;;;;;;;;3.25;3.25;;;;;18.39;57.34;102188.78;5101771;28;10252;-70
2022/05/02 06:18:42;;;;;;;;;4.00;2.00;;;;;18.37;57.27;102187.91;5088963;28;9466;-69
2022/05/02 06:21:08;;;;;;;;;3.00;3.00;;;;;18.36;57.00;102187.00;5089709;28;9668;-70
2022/05/02 06:23:45;;;;;;;;;4.75;4.00;;;;;18.37;56.84;102193.19;5089689;28;9403;-70
2022/05/02 06:26:10;;;;;;;;;3.00;2.00;;;;;18.35;56.40;102188.75;5088983;28;9533;-69
2022/05/02 06:28:47;;;;;;;;;4.75;4.00;;;;;18.37;56.25;102191.41;5090042;28;9496;-69
2022/05/02 06:31:17;;;;;;;;;2.00;2.00;;;;;18.38;56.14;102185.25;5089821;28;8775;-70
2022/05/02 06:33:48;;;;;;;;;5.50;4.00;;;;;18.37;55.72;102182.59;5089220;28;9458;-69
2022/05/02 06:36:48;;;;;;;;;5.00;3.75;;;;;18.38;55.97;102187.91;5089580;28;10068;-69
2022/05/02 06:39:16;;;;;;;;;4.00;4.00;;;;;18.37;55.58;102186.13;5089744;28;9458;-69
2022/05/02 06:42:13;;;;;;;;;3.25;3.25;;;;;18.38;55.41;102190.53;5088878;28;9506;-69
2022/05/02 06:44:50;;;;;;;;;3.50;2.75;;;;;18.38;55.25;102192.28;5084397;28;9471;-70
2022/05/02 06:47:51;;;;;;;;;2.25;2.25;;;;;18.40;54.85;102193.22;5089467;28;9531;-70
2022/05/02 06:50:18;;;;;;;;;2.25;2.25;;;;;18.36;54.87;102189.66;5088605;28;9522;-70
2022/05/02 06:52:58;;;;;;;;;3.75;3.75;;;;;18.38;54.87;102184.34;5089558;28;9420;-70
2022/05/02 06:55:29;;;;;;;;;3.50;2.25;;;;;18.38;54.65;102187.00;5089255;28;9578;-70
2022/05/02 06:57:54;;;;;;;;;4.25;3.00;;;;;18.38;54.71;102190.53;5089416;28;9783;-70
2022/05/02 07:00:20;;;;;;;;;4.25;3.25;;;;;18.39;54.42;102186.16;5089275;28;9752;-70
2022/05/02 07:03:10;;;;;;;;;4.00;3.00;;;;;18.39;54.31;102189.69;5106727;28;8879;-70
2022/05/02 07:05:56;;;;;;;;;3.00;3.00;;;;;18.39;54.19;102184.38;5109788;28;8786;-70
2022/05/02 07:08:27;;;;;;;;;3.00;3.00;;;;;18.39;53.78;102184.38;5112713;28;9587;-70
2022/05/02 07:10:58;;;;;;;;;3.00;2.00;;;;;18.39;53.97;102184.38;5113198;28;9452;-71
2022/05/02 07:13:51;;;;;;;;;5.00;3.00;;;;;18.43;53.80;102187.94;5105964;28;9406;-70
2022/05/02 07:16:22;;;;;;;;;3.00;3.00;;;;;18.42;53.62;102187.06;5092155;28;9512;-70
2022/05/02 07:19:20;;;;;;;;;2.25;2.25;;;;;18.42;53.72;102187.06;5092510;28;9518;-70
2022/05/02 07:22:00;;;;;;;;;3.25;3.25;;;;;18.45;53.16;102183.56;5091568;28;10259;-70
2022/05/02 07:24:46;;;;;;;;;2.00;2.00;;;;;18.43;53.29;102188.84;5092696;28;9610;-71
2022/05/02 07:27:34;;;;;;;;;2.00;2.00;;;;;18.45;53.49;102187.09;5092901;28;9638;-70
2022/05/02 07:30:01;;;;;;;;;4.00;3.00;;;;;18.44;53.17;102185.34;5091702;28;9406;-69
2022/05/02 07:32:27;;;;;;;;;6.00;5.00;;;;;18.45;52.79;102187.09;5092690;28;9312;-70
2022/05/02 07:34:54;;;;;;;;;5.25;5.25;;;;;18.48;52.94;102186.25;5092750;28;9543;-70
2022/05/02 07:37:22;;;;;;;;;2.00;2.00;;;;;18.45;52.75;102187.09;5091998;28;9455;-70
2022/05/02 07:39:49;;;;;;;;;4.50;4.50;;;;;18.45;52.75;102187.09;5092118;28;10231;-70
2022/05/02 07:42:15;;;;;;;;;4.25;3.00;;;;;18.47;52.62;102190.66;5092614;28;9534;-69
2022/05/02 07:44:43;;;;;;;;;3.50;3.50;;;;;18.48;52.40;102189.78;5091927;28;9470;-70
2022/05/02 07:47:11;;;;;;;;;3.00;3.00;;;;;18.48;52.58;102192.44;5092525;28;9452;-69
2022/05/02 07:49:37;;;;;;;;;3.50;3.50;;;;;18.49;52.09;102190.66;5092422;28;9445;-69
2022/05/02 07:52:03;;;;;;;;;2.75;2.75;;;;;18.53;52.06;102185.44;5091166;28;9461;-69
2022/05/02 07:54:30;;;;;;;;;3.00;3.00;;;;;18.53;52.22;102197.78;5092063;28;9488;-69
2022/05/02 07:57:03;;;;;;;;;2.25;2.25;;;;;18.52;51.86;102186.31;5091245;28;9427;-69
2022/05/02 07:59:54;;;;;;;;;4.00;3.00;;;;;18.55;51.92;102188.13;5092284;28;10158;-70
2022/05/02 08:02:19;;;;;;;;;4.00;3.25;;;;;18.54;51.96;102183.69;5101356;28;9490;-69
2022/05/02 08:04:45;;;;;;;;;3.00;3.00;;;;;18.51;51.68;102184.56;5111615;28;9533;-70
2022/05/02 08:07:37;;;;;;;;;4.00;4.00;;;;;18.55;51.63;102185.47;5111952;28;8843;-69
2022/05/02 08:10:21;;;;;;;;;3.25;3.25;;;;;18.56;51.71;102182.81;5111697;28;8805;-70
2022/05/02 08:13:19;;;;;;;;;3.00;3.00;;;;;18.57;51.39;102179.31;5108525;28;9561;-70
2022/05/02 08:16:01;;;;;;;;;3.00;3.00;;;;;18.60;51.24;102187.28;5091505;28;9800;-70
2022/05/02 08:19:09;;;;;;;;;3.00;2.00;;;;;18.60;51.15;102186.38;5089900;28;9987;-69
2022/05/02 08:21:45;;;;;;;;;3.25;3.25;;;;;18.59;51.30;102185.53;5091050;28;10116;-70
2022/05/02 08:27:24;;;;;;;;;4.00;4.00;;;;;18.62;50.94;102190.84;5091538;28;9664;-70
2022/05/02 08:30:03;;;;;;;;;4.25;2.75;;;;;18.64;51.17;102190.84;5090929;28;9625;-69
2022/05/02 08:32:51;;;;;;;;;4.00;4.00;;;;;18.64;50.96;102183.81;5090834;28;9635;-69
2022/05/02 08:35:32;;;;;;;;;4.75;4.75;;;;;18.65;50.95;102187.34;5091686;28;9564;-69
2022/05/02 08:38:09;;;;;;;;;3.00;3.00;;;;;18.66;50.89;102181.19;5091124;28;9524;-69
2022/05/02 08:40:46;;;;;;;;;3.75;3.25;;;;;18.68;50.80;102188.25;5090716;28;9437;-69
2022/05/02 08:43:42;;;;;;;;;4.25;3.25;;;;;18.70;50.74;102191.81;5091352;28;9465;-69
2022/05/02 08:46:29;;;;;;;;;3.25;3.25;;;;;18.72;50.67;102189.16;5089948;28;9547;-69
2022/05/02 08:52:20;;;;;;;;;4.00;3.00;;;;;18.73;50.41;102185.66;5090827;28;9361;-69
2022/05/02 08:55:08;;;;;;;;;3.25;3.25;;;;;18.72;50.42;102184.75;5089926;28;9390;-69
2022/05/02 08:57:53;;;;;;;;;3.25;3.25;;;;;18.75;50.44;102184.78;5091013;28;9474;-69
2022/05/02 09:00:26;;;;;;;;;2.75;2.75;;;;;18.77;50.19;102180.41;5089991;28;9580;-70
2022/05/02 09:03:29;;;;;;;;;3.50;3.50;;;;;18.79;50.40;102186.59;5109921;28;9626;-70
2022/05/02 09:06:38;;;;;;;;;5.00;5.00;;;;;18.80;50.02;102177.78;5110887;28;9393;-70
2022/05/02 09:09:18;;;;;;;;;4.00;4.00;;;;;18.83;49.97;102180.47;5110122;28;9532;-70
2022/05/02 09:12:27;;;;;;;;;3.00;3.00;;;;;18.87;49.75;102175.19;5110555;28;9689;-70
2022/05/02 09:15:07;;;;;;;;;4.00;4.00;;;;;18.89;49.79;102181.41;5089966;28;9554;-70
2022/05/02 09:17:56;;;;;;;;;3.75;3.75;;;;;18.88;49.63;102175.22;5090777;28;9811;-69
2022/05/02 09:20:55;;;;;;;;;3.00;3.00;;;;;18.91;49.77;102177.00;5090246;28;9587;-70
2022/05/02 09:23:29;;;;;;;;;4.00;3.00;;;;;18.92;49.69;102173.47;5089627;28;9534;-69
2022/05/02 09:26:07;;;;;;;;;3.50;3.50;;;;;18.93;49.58;102169.97;5090056;28;9486;-69
2022/05/02 09:28:53;;;;;;;;;3.00;3.00;;;;;18.94;49.40;102163.78;5089519;28;9525;-69
2022/05/02 09:31:36;;;;;;;;;3.00;3.00;;;;;18.94;49.74;102169.06;5090565;28;9532;-68
2022/05/02 09:34:17;;;;;;;;;3.75;3.00;;;;;18.93;49.61;102170.84;5089821;28;9556;-69
2022/05/02 09:36:59;;;;;;;;;4.00;4.00;;;;;18.96;49.48;102167.34;5089167;28;9484;-69
2022/05/02 09:39:36;;;;;;;;;4.00;4.00;;;;;18.98;49.34;102160.28;5090106;28;9633;-70
2022/05/02 09:42:33;;;;;;;;;5.00;5.00;;;;;19.00;49.42;102162.09;5089665;28;9574;-70
2022/05/02 09:51:14;;;;;;;;;5.67;3.33;;;;;19.04;49.42;102160.34;5088967;28;9463;-70
2022/05/02 09:53:39;;;;;;;;;3.00;2.50;;;;;19.03;49.29;102156.81;5089997;28;9456;-69
2022/05/02 09:56:38;;;;;;;;;3.75;2.50;;;;;19.06;49.25;102154.19;5089579;28;9494;-69
2022/05/02 09:59:18;;;;;;;;;4.00;3.00;;;;;19.06;49.07;102148.88;5089678;28;8784;-69
2022/05/02 10:01:51;;;;;;;;;3.00;3.00;;;;;19.07;48.99;102161.25;5098808;28;9530;-70
2022/05/02 10:04:31;;;;;;;;;4.50;3.50;;;;;19.09;48.78;102153.31;5109404;28;9475;-70
2022/05/02 10:07:21;;;;;;;;;6.50;6.50;;;;;19.08;49.08;102157.72;5109886;28;9539;-70
2022/05/02 10:10:09;;;;;;;;;3.50;3.50;;;;;19.10;48.95;102161.28;5109990;28;10275;-70
2022/05/02 10:12:46;;;;;;;;;3.00;3.00;;;;;19.10;48.90;102153.34;5108883;28;9378;-69
2022/05/02 10:15:53;;;;;;;;;3.00;3.00;;;;;19.12;48.48;102145.41;5089852;28;10461;-70
2022/05/02 10:18:36;;;;;;;;;3.75;3.75;;;;;19.15;48.70;102150.72;5088966;28;9688;-69
2022/05/02 10:21:52;;;;;;;;;4.25;4.25;;;;;19.15;48.64;102151.63;5089303;28;9657;-69
2022/05/02 10:24:45;;;;;;;;;2.00;2.00;;;;;19.18;48.54;102145.44;5071940;28;9467;-68
2022/05/02 10:27:41;;;;;;;;;5.75;5.75;;;;;19.19;48.50;102149.88;5089756;28;9512;-69
2022/05/02 10:30:11;;;;;;;;;3.00;3.00;;;;;19.20;48.60;102144.56;5089677;28;9539;-69
2022/05/02 10:32:43;;;;;;;;;4.00;4.00;;;;;19.19;48.70;102142.81;5089172;28;9533;-70
2022/05/02 10:35:14;;;;;;;;;3.00;3.00;;;;;19.21;48.68;102130.47;5089774;28;9668;-69
2022/05/02 10:37:56;;;;;;;;;2.75;2.75;;;;;19.22;48.62;102139.31;5089728;28;9782;-70
2022/05/02 10:40:33;;;;;;;;;2.00;2.00;;;;;19.25;48.44;102134.91;5088865;28;9575;-70
2022/05/02 10:43:03;;;;;;;;;3.50;3.50;;;;;19.25;48.32;102139.31;5093365;28;9458;-70
2022/05/02 10:45:34;;;;;;;;;3.75;3.75;;;;;19.26;48.22;102138.44;5093404;28;9454;-69
2022/05/02 10:48:13;;;;;;;;;3.00;3.00;;;;;19.29;48.30;102135.81;5093401;28;9511;-70
2022/05/02 10:50:39;;;;;;;;;2.00;2.00;;;;;19.31;48.28;102132.28;5093404;28;9518;-70
2022/05/02 10:53:16;;;;;;;;;3.00;3.00;;;;;19.29;48.21;102131.41;5092499;28;9323;-69
2022/05/02 10:56:00;;;;;;;;;2.25;2.25;;;;;19.32;48.30;102125.22;5093217;28;8779;-70
2022/05/02 10:58:31;;;;;;;;;4.00;4.00;;;;;19.36;48.16;102128.78;5093656;28;9401;-69
2022/05/02 11:01:05;;;;;;;;;4.00;3.00;;;;;19.36;47.98;102132.31;5095382;28;9534;-69
2022/05/02 11:03:42;;;;;;;;;2.25;2.25;;;;;19.35;47.99;102127.91;5113672;28;9949;-70
2022/05/02 11:06:45;;;;;;;;;3.00;3.00;;;;;19.39;48.01;102121.75;5113197;28;9555;-69
2022/05/02 11:09:33;;;;;;;;;3.00;3.00;;;;;19.42;48.03;102128.88;5113823;28;9539;-70
2022/05/02 11:12:01;;;;;;;;;4.50;2.00;;;;;19.42;47.97;102123.56;5112755;28;9711;-70
2022/05/02 11:14:35;;;;;;;;;5.00;5.00;;;;;19.44;47.87;102122.69;5096352;28;9654;-70
2022/05/02 11:17:19;;;;;;;;;2.00;2.00;;;;;19.43;47.87;102120.91;5092809;28;9593;-69
2022/05/02 11:23:22;;;;;;;;;3.75;3.00;;;;;19.52;47.77;102113.03;5049457;28;9507;-70
2022/05/02 11:26:14;;;;;;;;;2.75;2.75;;;;;19.51;47.75;102108.59;5050116;28;9540;-69
2022/05/02 11:28:48;;;;;;;;;2.25;2.25;;;;;19.56;47.74;102113.94;5082025;28;9538;-70
2022/05/02 11:31:22;;;;;;;;;2.50;2.50;;;;;19.58;47.53;102104.22;5092603;28;9478;-69
2022/05/02 11:34:07;;;;;;;;;3.00;3.00;;;;;19.60;47.47;102103.38;5092658;28;9687;-69
2022/05/02 11:36:42;;;;;;;;;3.00;3.00;;;;;19.61;47.51;102112.16;5092372;28;9468;-69
2022/05/02 11:39:11;;;;;;;;;3.00;3.00;;;;;19.62;47.48;102103.34;5092931;28;9678;-70
2022/05/02 11:41:47;;;;;;;;;4.50;4.50;;;;;19.60;47.17;102106.00;5092840;28;9440;-68
2022/05/02 11:44:13;;;;;;;;;3.50;3.25;;;;;19.66;47.37;102094.53;5092643;28;9547;-68
2022/05/02 11:47:06;;;;;;;;;4.50;3.50;;;;;19.68;47.24;102098.97;5093091;28;9677;-68
2022/05/02 11:49:52;;;;;;;;;3.00;3.00;;;;;19.70;47.08;102098.97;5091979;28;9380;-69
2022/05/02 11:52:31;;;;;;;;;4.50;2.25;;;;;19.72;47.17;102098.09;5092460;28;9405;-69
2022/05/02 11:54:58;;;;;;;;;2.50;2.50;;;;;19.74;47.17;102092.81;5092336;28;9595;-69
2022/05/02 11:57:44;;;;;;;;;4.00;4.00;;;;;19.77;46.93;102098.13;5092113;28;9508;-70
2022/05/02 12:00:15;;;;;;;;;3.75;3.00;;;;;19.76;47.12;102102.53;5092332;28;9489;-70
2022/05/02 12:02:53;;;;;;;;;4.00;3.00;;;;;19.77;46.96;102096.34;5109939;28;9533;-70
2022/05/02 12:05:27;;;;;;;;;2.00;2.00;;;;;19.78;46.91;102098.13;5112837;28;9520;-69
2022/05/02 12:07:56;;;;;;;;;4.75;3.25;;;;;19.82;47.02;102095.50;5112486;28;10325;-70
2022/05/02 12:10:32;;;;;;;;;3.50;3.50;;;;;19.87;46.83;102107.00;5111853;28;9373;-69
2022/05/02 12:12:58;;;;;;;;;3.75;3.00;;;;;19.88;46.57;102099.03;5108267;28;9419;-70
2022/05/02 12:15:24;;;;;;;;;3.75;3.75;;;;;19.89;46.64;102103.47;5092401;28;9450;-70
2022/05/02 12:18:03;;;;;;;;;3.00;3.00;;;;;19.89;46.57;102098.16;5091318;28;9472;-69
2022/05/02 12:20:36;;;;;;;;;2.50;2.50;;;;;19.89;46.45;102084.91;5091732;28;8842;-69
2022/05/02 12:23:07;;;;;;;;;4.00;4.00;;;;;19.94;46.47;102082.28;5091964;28;9466;-70
2022/05/02 12:25:34;;;;;;;;;2.75;2.25;;;;;19.92;46.51;102084.03;5091373;28;9613;-71
2022/05/02 12:28:03;;;;;;;;;2.25;2.25;;;;;19.93;46.54;102083.16;5091513;28;9612;-70
2022/05/02 12:30:30;;;;;;;;;3.25;3.00;;;;;19.92;46.53;102073.44;5091859;28;9482;-70